CDT,Max TemperatureF,Mean TemperatureF,Min TemperatureF,Max Dew PointF,MeanDew PointF,Min DewpointF,Max Humidity, Mean Humidity, Min Humidity, Max Sea Level PressureIn, Mean Sea Level PressureIn, Min Sea Level PressureIn, Max VisibilityMiles, Mean VisibilityMiles, Min VisibilityMiles, Max Wind SpeedMPH, Mean Wind SpeedMPH, Max Gust SpeedMPH,PrecipitationIn, CloudCover, Events, WindDirDegrees
2013-8-1,88,81,74,77,74,71,94,81,68,30.02,29.98,29.94,10,8,0,18,5,30,1.41,3,Rain-Thunderstorm,254
2013-8-2,90,82,74,78,74,72,100,81,61,30.03,29.97,29.93,10,7,0,14,4,17,0.00,2,Fog,335
2013-8-3,91,85,78,78,76,74,91,77,63,30.07,30.03,29.99,10,10,8,17,6,21,0.04,2,,232
2013-8-4,95,87,78,77,75,69,91,70,49,30.08,30.03,29.97,10,9,5,22,5,29,0.01,1,,302
2013-8-5,94,85,75,77,74,71,88,70,52,30.04,30.00,29.96,10,10,7,14,5,17,0.00,1,,307
2013-8-6,95,86,77,77,74,71,91,72,52,30.04,29.97,29.93,10,9,7,18,5,23,0.03,3,Rain-Thunderstorm,5
2013-8-7,92,84,76,79,74,70,94,75,56,30.00,29.96,29.92,10,10,9,12,5,15,0.00,1,,92
2013-8-8,92,86,80,79,77,73,94,77,59,29.99,29.95,29.92,10,9,6,13,6,18,0.00,2,,91
2013-8-9,90,85,79,79,76,74,97,81,64,30.06,30.00,29.96,10,9,2,18,8,22,0.37,3,Rain-Thunderstorm,122
2013-8-10,89,84,78,77,74,73,91,77,63,30.11,30.07,30.03,10,10,10,15,6,18,T,1,,113
2013-8-11,90,84,78,78,75,73,91,78,64,30.15,30.11,30.09,10,10,2,16,6,22,0.17,3,Rain,91
2013-8-12,90,85,79,77,76,73,97,83,68,30.12,30.09,30.05,10,9,2,14,3,17,0.33,3,Rain,149
2013-8-13,91,83,75,78,74,70,88,78,68,30.08,30.01,29.95,10,9,1,25,5,36,0.58,3,Rain-Thunderstorm,272
2013-8-14,90,83,75,74,72,70,94,75,55,29.98,29.94,29.90,10,10,10,15,5,21,T,2,,284
2013-8-15,86,80,74,75,73,72,100,85,69,29.98,29.94,29.91,10,8,1,15,4,20,0.01,5,Rain,287
2013-8-16,81,78,75,75,73,72,94,87,79,30.01,29.97,29.93,10,7,1,13,4,15,0.41,6,Rain-Thunderstorm,41
2013-8-17,76,74,71,74,72,67,100,94,87,30.04,29.99,29.95,10,6,2,17,7,21,2.74,7,Rain,58
2013-8-18,80,76,71,75,72,68,94,90,85,30.06,30.02,29.98,10,7,0,21,6,26,3.46,6,Fog-Rain-Thunderstorm,56
2013-8-19,88,82,75,77,75,73,94,80,65,30.07,30.03,29.99,10,10,10,13,7,16,0.00,3,,122
2013-8-20,86,81,75,76,74,72,94,84,74,30.11,30.05,29.99,10,10,2,18,4,25,0.08,2,Rain,76
2013-8-21,89,82,74,77,72,69,94,81,68,30.15,30.10,30.06,10,10,10,13,5,17,0.00,0,,68
2013-8-22,89,81,73,75,73,70,93,79,65,30.12,30.05,29.99,10,10,9,15,6,22,T,2,Rain,95
2013-8-23,81,78,74,75,73,71,94,87,79,30.05,30.01,29.96,10,10,8,14,4,17,0.02,3,Rain,68
2013-8-24,82,78,73,74,73,70,94,84,74,30.15,30.09,30.01,10,9,1,16,3,21,0.19,2,Rain,86
2013-8-25,85,80,74,75,73,71,94,82,70,30.21,30.17,30.11,10,10,3,15,6,18,0.12,5,Rain,86
2013-8-26,88,80,72,71,66,63,84,65,46,30.22,30.16,30.11,10,10,10,10,5,17,0.02,2,,61
2013-8-27,88,79,69,69,65,61,84,62,40,30.12,30.08,30.03,10,10,10,10,4,16,0.00,1,,15
2013-8-28,90,81,71,70,68,66,84,66,47,30.08,30.04,30.01,10,10,10,10,5,14,0.00,1,,355
2013-8-29,90,82,73,73,69,67,87,69,50,30.08,30.02,29.98,10,10,8,13,6,17,0.00,1,,292
2013-8-30,92,84,75,73,70,69,82,66,49,30.04,29.97,29.91,10,10,8,13,7,18,0.00,1,,292
2013-8-31,91,84,76,75,72,71,85,72,59,29.97,29.92,29.87,10,9,6,14,5,20,0.04,1,Rain,330